This is the latest recevied weather packets stored in our database for station/object KO4RJX-10. If no packets are shown the sender has not sent any weather packets the latest 10 day(s).
| Time | Temp. | Humidity | Pressure | Rain* | Wind** | Luminosity | Snow |
|---|---|---|---|---|---|---|---|
| 1777408715 | 22.22° C | 47% | 1010.5 hPa | 0 mm | - | - | - |
| 1777408183 | 21.67° C | 47% | 1010.5 hPa | 0 mm | - | - | - |
| 1777406713 | 21.11° C | 48% | 1011.2 hPa | 0 mm | - | - | - |
| 1777406183 | 21.11° C | 47% | 1011.2 hPa | 0 mm | - | - | - |
| 1777400983 | 20.56° C | 42% | 1012.2 hPa | 0 mm | - | - | - |
| 1777397384 | 18.89° C | 43% | 1012.2 hPa | 0 mm | - | - | - |
| 1777394583 | 17.22° C | 47% | 1012.2 hPa | 0 mm | - | - | - |
| 1777393383 | 16.67° C | 51% | 1011.9 hPa | 0 mm | - | - | - |
| 1777391383 | 17.22° C | 48% | 1013.2 hPa | 0 mm | - | - | - |
| 1777390713 | 16.67° C | 51% | 1014.2 hPa | 0 mm | - | - | - |
| 1777390183 | 16.67° C | 51% | 1014.2 hPa | 0 mm | - | - | - |
| 1777389383 | 16.67° C | 54% | 1014.9 hPa | 0 mm | - | - | - |
| 1777388983 | 16.67° C | 54% | 1015.2 hPa | 0 mm | - | - | - |
| 1777388583 | 16.11° C | 55% | 1015.2 hPa | 0 mm | - | - | - |
| 1777380183 | 12.78° C | 64% | 1017.6 hPa | 0 mm | - | - | - |
| 1777378183 | 10° C | 77% | 1017.6 hPa | 0 mm | - | - | - |
| 1777377383 | 9.44° C | 82% | 1017.3 hPa | 0 mm | - | - | - |
| 1777372983 | 5.56° C | 97% | 1014.9 hPa | 0 mm | - | - | - |
| 1777365113 | 6.67° C | 95% | 1014.9 hPa | 0 mm | - | - | - |
| 1777363383 | 6.67° C | 94% | 1015.2 hPa | 0 mm | - | - | - |
| 1777358983 | 7.78° C | 88% | 1015.6 hPa | 0 mm | - | - | - |
| 1777357784 | 7.78° C | 88% | 1015.9 hPa | 0 mm | - | - | - |
| 1777356583 | 8.33° C | 86% | 1015.9 hPa | 0 mm | - | - | - |
| 1777356185 | 8.33° C | 85% | 1015.9 hPa | 0 mm | - | - | - |
| 1777350184 | 12.22° C | 66% | 1017.3 hPa | 0 mm | - | - | - |
* Rain since midnight (hover to see other rain measurements)
** Current wind speed in m/s (hover to see current wind gust speed)